createdAt,value
2022-11-24T00:01:56.473Z,4.33
2022-11-24T00:04:18.379Z,3.60
2022-11-24T00:06:40.416Z,3.60
2022-11-24T00:09:04.491Z,3.70
2022-11-24T00:11:33.699Z,3.67
2022-11-24T00:13:57.496Z,3.83
2022-11-24T00:16:26.352Z,3.78
2022-11-24T00:18:51.070Z,4.13
2022-11-24T00:21:14.768Z,4.43
2022-11-24T00:23:37.414Z,3.42
2022-11-24T00:26:13.615Z,4.07
2022-11-24T00:28:37.507Z,5.10
2022-11-24T00:30:59.770Z,3.47
2022-11-24T00:33:21.681Z,3.50
2022-11-24T00:35:43.492Z,4.43
2022-11-24T00:38:05.254Z,3.53
2022-11-24T00:40:32.127Z,3.83
2022-11-24T00:42:56.624Z,3.83
2022-11-24T00:45:18.635Z,3.30
2022-11-24T00:47:40.445Z,2.73
2022-11-24T00:50:02.321Z,3.27
2022-11-24T00:52:24.173Z,3.10
2022-11-24T00:54:46.028Z,3.60
2022-11-24T00:57:07.797Z,4.00
2022-11-24T00:59:29.733Z,3.23
2022-11-24T01:01:51.610Z,3.17
2022-11-24T01:04:13.460Z,3.13
2022-11-24T01:06:36.769Z,3.53
2022-11-24T01:08:59.002Z,3.43
2022-11-24T01:11:51.589Z,3.10
2022-11-24T01:14:13.417Z,3.23
2022-11-24T01:16:35.504Z,3.90
2022-11-24T01:18:57.644Z,3.73
2022-11-24T01:21:21.158Z,3.30
2022-11-24T01:23:43.174Z,3.47
2022-11-24T01:26:08.715Z,3.13
2022-11-24T01:28:30.550Z,3.10
2022-11-24T01:31:01.476Z,2.77
2022-11-24T01:33:23.405Z,3.07
2022-11-24T01:35:45.270Z,3.57
2022-11-24T01:38:07.290Z,3.77
2022-11-24T01:40:29.180Z,3.33
2022-11-24T01:42:53.240Z,3.60
2022-11-24T01:45:41.798Z,3.90
2022-11-24T01:48:07.794Z,3.10
2022-11-24T01:50:29.974Z,3.73
2022-11-24T01:52:55.678Z,3.47
2022-11-24T01:55:25.862Z,3.40
2022-11-24T01:57:59.923Z,2.93
2022-11-24T02:00:22.110Z,3.65
2022-11-24T02:02:45.792Z,2.60
2022-11-24T02:05:24.071Z,2.67
2022-11-24T02:07:48.691Z,2.70
2022-11-24T02:10:14.993Z,2.93
2022-11-24T02:12:40.368Z,2.93
2022-11-24T02:15:02.455Z,3.27
2022-11-24T02:17:24.285Z,3.53
2022-11-24T02:20:00.805Z,3.30
2022-11-24T02:22:47.476Z,3.50
2022-11-24T02:25:46.921Z,3.20
2022-11-24T02:28:16.920Z,3.10
2022-11-24T02:30:39.445Z,3.10
2022-11-24T02:33:02.619Z,3.03
2022-11-24T02:35:27.872Z,2.97
2022-11-24T02:37:49.666Z,3.43
2022-11-24T02:40:16.693Z,2.93
2022-11-24T02:42:44.492Z,3.30
2022-11-24T02:45:09.951Z,3.00
2022-11-24T02:47:31.826Z,3.00
2022-11-24T02:49:53.656Z,3.87
2022-11-24T02:52:16.001Z,3.53
2022-11-24T02:54:37.858Z,2.97
2022-11-24T02:57:00.813Z,2.73
2022-11-24T02:59:22.914Z,3.37
2022-11-24T03:01:44.769Z,3.20
2022-11-24T03:04:07.010Z,3.53
2022-11-24T03:06:28.865Z,3.90
2022-11-24T03:08:50.783Z,3.07
2022-11-24T03:11:12.572Z,3.10
2022-11-24T03:13:34.371Z,3.37
2022-11-24T03:15:56.242Z,3.20
2022-11-24T03:18:18.171Z,2.67
2022-11-24T03:20:39.939Z,3.47
2022-11-24T03:23:01.735Z,3.50
2022-11-24T03:25:23.763Z,3.07
2022-11-24T03:27:46.137Z,3.17
2022-11-24T03:30:08.988Z,3.63
2022-11-24T03:32:30.973Z,3.20
2022-11-24T03:34:52.779Z,3.13
2022-11-24T03:37:15.243Z,3.30
2022-11-24T03:39:36.989Z,3.30
2022-11-24T03:41:58.944Z,3.40
2022-11-24T03:44:20.672Z,3.03
2022-11-24T03:46:42.603Z,3.20
2022-11-24T03:49:04.458Z,3.70
2022-11-24T03:51:26.264Z,3.13
2022-11-24T03:53:48.125Z,4.20
2022-11-24T03:56:09.876Z,3.60
2022-11-24T03:58:31.743Z,3.43
2022-11-24T04:00:55.941Z,4.43
2022-11-24T04:03:18.052Z,3.75
2022-11-24T04:05:39.910Z,3.80
2022-11-24T04:08:03.781Z,3.50
2022-11-24T04:10:25.717Z,3.50
2022-11-24T04:12:47.528Z,3.87
2022-11-24T04:15:14.942Z,3.90
2022-11-24T04:17:36.762Z,4.23
2022-11-24T04:19:58.552Z,4.33
2022-11-24T04:22:20.332Z,3.70
2022-11-24T04:24:42.656Z,3.63
2022-11-24T04:27:04.573Z,3.77
2022-11-24T04:29:26.385Z,3.40
2022-11-24T04:31:48.249Z,3.57
2022-11-24T04:34:11.717Z,4.43
2022-11-24T04:36:33.504Z,4.53
2022-11-24T04:39:24.331Z,3.47
2022-11-24T04:41:37.157Z,3.97
2022-11-24T04:43:58.974Z,4.00
2022-11-24T04:46:20.810Z,4.53
2022-11-24T04:48:42.783Z,3.53
2022-11-24T04:51:06.157Z,3.60
2022-11-24T04:53:28.299Z,3.87
2022-11-24T04:55:50.429Z,3.70
2022-11-24T04:58:12.640Z,3.63
2022-11-24T05:00:34.611Z,2.90
2022-11-24T05:02:56.686Z,2.57
2022-11-24T05:05:18.700Z,2.27
2022-11-24T05:07:40.520Z,2.23
2022-11-24T05:10:21.510Z,1.70
2022-11-24T05:12:48.408Z,1.60
2022-11-24T05:15:12.889Z,1.57
2022-11-24T05:17:38.709Z,1.77
2022-11-24T05:20:00.731Z,1.93
2022-11-24T05:22:22.554Z,1.87
2022-11-24T05:24:44.275Z,2.00
2022-11-24T05:27:06.171Z,1.77
2022-11-24T05:29:28.010Z,1.73
2022-11-24T05:31:49.833Z,2.30
2022-11-24T05:34:13.351Z,3.03
2022-11-24T05:36:53.215Z,2.47
2022-11-24T05:39:15.010Z,2.47
2022-11-24T05:41:36.787Z,2.53
2022-11-24T05:43:58.552Z,2.73
2022-11-24T05:46:20.361Z,2.30
2022-11-24T05:48:42.232Z,2.10
2022-11-24T05:51:07.959Z,3.03
2022-11-24T05:53:31.159Z,3.47
2022-11-24T05:55:53.167Z,3.10
2022-11-24T05:58:15.058Z,2.30
2022-11-24T06:00:37.562Z,2.40
2022-11-24T06:03:00.484Z,2.93
2022-11-24T06:05:22.494Z,2.33
2022-11-24T06:07:44.523Z,2.67
2022-11-24T06:10:06.736Z,2.60
2022-11-24T06:12:28.547Z,2.80
2022-11-24T06:14:50.361Z,2.70
2022-11-24T06:17:12.849Z,2.73
2022-11-24T06:19:40.043Z,2.77
2022-11-24T06:22:04.370Z,3.10
2022-11-24T06:24:26.145Z,3.83
2022-11-24T06:26:48.063Z,3.20
2022-11-24T06:29:09.968Z,3.23
2022-11-24T06:31:31.898Z,3.83
2022-11-24T06:33:53.919Z,2.53
2022-11-24T06:36:16.269Z,3.07
2022-11-24T06:38:38.255Z,3.60
2022-11-24T06:41:06.752Z,3.83
2022-11-24T06:43:30.483Z,5.00
2022-11-24T06:45:52.547Z,3.13
2022-11-24T06:48:14.443Z,3.57
2022-11-24T06:50:36.412Z,3.83
2022-11-24T06:52:58.217Z,3.83
2022-11-24T06:55:20.079Z,3.53
2022-11-24T06:57:41.930Z,4.53
2022-11-24T07:00:08.835Z,4.00
2022-11-24T07:02:30.762Z,3.70
2022-11-24T07:04:52.690Z,3.47
2022-11-24T07:07:14.590Z,3.47
2022-11-24T07:09:36.590Z,3.67
2022-11-24T07:11:58.419Z,3.40
2022-11-24T07:14:20.240Z,3.70
2022-11-24T07:16:42.498Z,3.17
2022-11-24T07:19:04.652Z,3.10
2022-11-24T07:21:28.794Z,3.53
2022-11-24T07:26:19.668Z,3.27
2022-11-24T07:28:41.736Z,2.57
2022-11-24T07:31:13.658Z,2.10
2022-11-24T07:33:36.542Z,2.37
2022-11-24T07:36:00.843Z,2.23
2022-11-24T07:38:22.672Z,1.80
2022-11-24T07:40:45.032Z,1.50
2022-11-24T07:43:07.008Z,1.80
2022-11-24T07:45:28.895Z,1.67
2022-11-24T07:47:50.802Z,1.57
2022-11-24T07:50:13.174Z,1.73
2022-11-24T07:52:35.377Z,1.43
2022-11-24T07:54:57.124Z,1.30
2022-11-24T07:57:18.987Z,1.57
2022-11-24T07:59:40.831Z,1.87
2022-11-24T08:02:02.668Z,1.33
2022-11-24T08:04:24.493Z,1.57
2022-11-24T08:06:47.646Z,1.27
2022-11-24T08:09:09.894Z,1.80
2022-11-24T08:11:32.922Z,1.57
2022-11-24T08:13:54.745Z,1.17
2022-11-24T08:16:19.258Z,1.23
2022-11-24T08:18:41.842Z,1.50
2022-11-24T08:21:05.600Z,1.10
2022-11-24T08:23:27.719Z,1.50
2022-11-24T08:25:54.188Z,1.60
2022-11-24T08:28:18.596Z,1.37
2022-11-24T08:30:40.699Z,1.33
2022-11-24T08:33:02.532Z,1.83
2022-11-24T08:35:24.751Z,1.70
2022-11-24T08:37:47.052Z,1.40
2022-11-24T08:40:09.983Z,1.37
2022-11-24T08:42:31.856Z,1.30
2022-11-24T08:44:58.874Z,1.03
2022-11-24T08:47:21.780Z,1.40
2022-11-24T08:49:43.604Z,1.43
2022-11-24T08:52:05.677Z,1.30
2022-11-24T08:54:28.045Z,1.57
2022-11-24T08:56:50.263Z,1.30
2022-11-24T08:59:14.094Z,1.67
2022-11-24T09:01:36.090Z,1.73
2022-11-24T09:03:58.490Z,1.47
2022-11-24T09:06:25.144Z,1.50
2022-11-24T09:08:47.154Z,1.60
2022-11-24T09:11:12.990Z,1.43
2022-11-24T09:13:35.723Z,1.87
2022-11-24T09:16:02.935Z,1.60
2022-11-24T09:18:29.948Z,1.63
2022-11-24T09:20:52.196Z,1.70
2022-11-24T09:23:14.765Z,1.47
2022-11-24T09:25:36.704Z,1.47
2022-11-24T09:28:00.043Z,1.60
2022-11-24T09:30:23.199Z,1.37
2022-11-24T09:32:45.066Z,1.80
2022-11-24T09:35:07.409Z,2.10
2022-11-24T09:37:32.514Z,1.77
2022-11-24T09:39:54.788Z,2.10
2022-11-24T09:42:53.437Z,2.57
2022-11-24T09:45:42.003Z,1.80
2022-11-24T09:48:21.330Z,1.77
2022-11-24T09:50:48.432Z,1.70
2022-11-24T09:53:46.304Z,1.90
2022-11-24T09:56:33.166Z,1.97
2022-11-24T09:59:05.454Z,1.60
2022-11-24T10:01:37.163Z,1.50
2022-11-24T10:04:05.674Z,2.00
2022-11-24T10:06:31.522Z,2.03
2022-11-24T10:09:11.529Z,1.97
2022-11-24T10:11:47.785Z,2.23
2022-11-24T10:14:15.518Z,1.70
2022-11-24T10:17:02.113Z,1.90
2022-11-24T10:19:48.512Z,1.70
2022-11-24T10:22:41.560Z,1.93
2022-11-24T10:25:39.405Z,2.10
2022-11-24T10:28:10.045Z,2.30
2022-11-24T10:30:31.984Z,1.90
2022-11-24T10:33:23.168Z,2.43
2022-11-24T10:36:08.023Z,2.30
2022-11-24T10:38:44.106Z,2.17
2022-11-24T10:41:16.676Z,2.03
2022-11-24T10:43:43.263Z,2.20
2022-11-24T10:46:15.802Z,2.33
2022-11-24T10:48:47.552Z,2.90
2022-11-24T10:52:05.875Z,2.67
2022-11-24T10:54:28.835Z,2.23
2022-11-24T10:56:54.335Z,2.53
2022-11-24T10:59:36.202Z,2.60
2022-11-24T11:01:59.415Z,2.40
2022-11-24T11:04:34.635Z,2.10
2022-11-24T11:07:18.788Z,2.50
2022-11-24T11:09:40.757Z,2.50
2022-11-24T11:12:42.885Z,2.93
2022-11-24T11:15:25.834Z,2.97
2022-11-24T11:17:52.329Z,3.23
2022-11-24T11:20:27.868Z,2.30
2022-11-24T11:22:50.783Z,3.10
2022-11-24T11:25:12.607Z,3.07
2022-11-24T11:27:34.757Z,2.70
2022-11-24T11:36:11.240Z,2.50
2022-11-24T11:38:38.060Z,2.90
2022-11-24T11:41:02.942Z,2.67
2022-11-24T11:43:39.768Z,2.60
2022-11-24T11:46:21.488Z,3.33
2022-11-24T11:48:48.103Z,3.57
2022-11-24T11:51:44.429Z,3.00
2022-11-24T11:54:22.464Z,2.83
2022-11-24T11:56:49.924Z,2.70
2022-11-24T11:59:33.004Z,2.70
2022-11-24T12:02:54.008Z,3.30
2022-11-24T12:05:46.305Z,2.57
2022-11-24T12:09:17.964Z,2.67
2022-11-24T12:11:45.544Z,2.57
2022-11-24T12:14:37.536Z,3.30
2022-11-24T12:17:48.477Z,3.13
2022-11-24T12:20:38.056Z,2.60
2022-11-24T12:23:21.677Z,2.87
2022-11-24T12:26:01.590Z,2.47
2022-11-24T12:29:03.773Z,2.67
2022-11-24T12:31:57.317Z,2.60
2022-11-24T12:34:50.428Z,2.67
2022-11-24T12:37:50.315Z,2.50
2022-11-24T12:40:20.826Z,2.60
2022-11-24T12:43:01.523Z,2.03
2022-11-24T12:45:51.300Z,2.17
2022-11-24T12:48:25.300Z,2.20
2022-11-24T12:50:47.489Z,2.05
2022-11-24T12:53:20.456Z,2.10
2022-11-24T12:55:44.245Z,2.40
2022-11-24T12:58:30.131Z,2.35
2022-11-24T13:01:11.558Z,1.73
2022-11-24T13:04:09.615Z,2.80
2022-11-24T13:06:53.464Z,1.95
2022-11-24T13:09:15.633Z,2.20
2022-11-24T13:11:52.431Z,2.10
2022-11-24T13:14:22.198Z,2.30
2022-11-24T13:17:31.872Z,2.60
2022-11-24T13:19:42.160Z,3.40
2022-11-24T13:22:07.002Z,2.50
2022-11-24T13:24:36.885Z,1.87
2022-11-24T13:27:17.974Z,2.87
2022-11-24T13:29:45.130Z,2.40
2022-11-24T13:32:07.027Z,2.10
2022-11-24T13:34:45.544Z,2.03
2022-11-24T13:37:32.003Z,1.70
2022-11-24T13:40:02.342Z,2.63
2022-11-24T13:42:42.804Z,2.33
2022-11-24T13:45:41.627Z,1.90
2022-11-24T13:48:29.108Z,1.73
2022-11-24T13:50:51.242Z,1.80
2022-11-24T13:53:39.210Z,1.97
2022-11-24T13:56:10.035Z,2.03
2022-11-24T13:58:48.035Z,2.00
2022-11-24T14:01:29.595Z,2.10
2022-11-24T14:04:43.270Z,2.33
2022-11-24T14:07:08.441Z,3.07
2022-11-24T14:09:47.055Z,2.70
2022-11-24T14:12:22.025Z,2.40
2022-11-24T14:14:49.743Z,2.57
2022-11-24T14:17:25.480Z,2.00
2022-11-24T14:19:53.660Z,1.80
2022-11-24T14:22:20.700Z,2.80
2022-11-24T14:24:45.474Z,2.70
2022-11-24T14:27:16.818Z,2.13
2022-11-24T14:29:54.490Z,2.60
2022-11-24T14:32:16.910Z,2.90
2022-11-24T14:34:38.981Z,2.83
2022-11-24T14:37:02.121Z,2.57
2022-11-24T14:39:28.643Z,2.83
2022-11-24T14:42:16.048Z,2.57
2022-11-24T14:44:40.981Z,2.30
2022-11-24T14:47:19.124Z,2.60
2022-11-24T14:49:43.184Z,2.83
2022-11-24T14:52:14.773Z,3.08
2022-11-24T14:54:46.501Z,2.97
2022-11-24T14:57:35.183Z,2.50
2022-11-24T15:00:12.284Z,3.10
2022-11-24T15:02:55.417Z,2.47
2022-11-24T15:05:22.963Z,2.60
2022-11-24T15:07:48.205Z,2.73
2022-11-24T15:10:34.996Z,2.40
2022-11-24T15:13:01.997Z,3.23
2022-11-24T15:15:32.854Z,2.90
2022-11-24T15:17:58.711Z,2.50
2022-11-24T15:20:45.579Z,2.60
2022-11-24T15:23:13.500Z,2.80
2022-11-24T15:25:35.550Z,2.63
2022-11-24T15:27:57.691Z,2.57
2022-11-24T15:30:20.237Z,2.63
2022-11-24T15:32:50.808Z,2.60
2022-11-24T15:35:12.623Z,2.03
2022-11-24T15:37:34.450Z,2.67
2022-11-24T15:39:56.251Z,2.43
2022-11-24T15:42:18.096Z,2.80
2022-11-24T15:44:39.864Z,2.90
2022-11-24T15:47:01.704Z,3.00
2022-11-24T15:49:23.601Z,3.10
2022-11-24T15:51:47.375Z,2.57
2022-11-24T15:54:15.764Z,3.47
2022-11-24T15:56:38.909Z,2.87
2022-11-24T15:59:01.904Z,2.80
2022-11-24T16:01:32.061Z,2.97
2022-11-24T16:03:54.087Z,3.27
2022-11-24T16:06:24.514Z,2.80
2022-11-24T16:08:47.702Z,3.33
2022-11-24T16:11:09.599Z,3.17
2022-11-24T16:13:31.595Z,2.97
2022-11-24T16:15:53.699Z,3.67
2022-11-24T16:18:16.225Z,3.30
2022-11-24T16:20:38.130Z,2.90
2022-11-24T16:22:59.919Z,3.17
2022-11-24T16:25:21.827Z,3.53
2022-11-24T16:27:43.707Z,2.87
2022-11-24T16:30:07.890Z,2.97
2022-11-24T16:32:29.726Z,3.50
2022-11-24T16:34:51.638Z,3.60
2022-11-24T16:37:13.606Z,2.70
2022-11-24T16:39:35.583Z,2.97
2022-11-24T16:41:57.714Z,2.97
2022-11-24T16:44:19.505Z,2.77
2022-11-24T16:46:43.290Z,3.30
2022-11-24T16:49:05.205Z,3.28
2022-11-24T16:51:32.985Z,3.40
2022-11-24T16:54:02.358Z,3.33
2022-11-24T16:56:24.723Z,2.83
2022-11-24T16:58:46.479Z,3.83
2022-11-24T17:01:13.536Z,3.23
2022-11-24T17:03:38.652Z,3.27
2022-11-24T17:06:01.152Z,3.27
2022-11-24T17:08:22.956Z,3.50
2022-11-24T17:10:44.815Z,3.43
2022-11-24T17:13:06.640Z,3.43
2022-11-24T17:15:34.601Z,3.03
2022-11-24T17:20:40.342Z,3.60
2022-11-24T17:23:02.408Z,3.50
2022-11-24T17:25:24.260Z,3.37
2022-11-24T17:27:46.119Z,3.40
2022-11-24T17:30:08.686Z,3.00
2022-11-24T17:32:31.541Z,4.33
2022-11-24T17:34:53.316Z,3.43
2022-11-24T17:37:15.475Z,4.40
2022-11-24T17:39:37.239Z,3.83
2022-11-24T17:41:59.105Z,3.77
2022-11-24T17:44:21.015Z,3.60
2022-11-24T17:46:42.898Z,3.40
2022-11-24T17:49:06.660Z,3.50
2022-11-24T17:51:28.747Z,4.60
2022-11-24T17:53:52.871Z,3.23
2022-11-24T17:56:19.831Z,4.45
2022-11-24T17:58:43.302Z,3.30
2022-11-24T18:01:06.070Z,3.03
2022-11-24T18:03:32.589Z,3.53
2022-11-24T18:06:05.068Z,3.67
2022-11-24T18:08:27.074Z,2.97
2022-11-24T18:10:48.917Z,3.07
2022-11-24T18:13:22.371Z,3.17
2022-11-24T18:15:52.613Z,3.73
2022-11-24T18:18:15.029Z,2.97
2022-11-24T18:20:36.868Z,3.17
2022-11-24T18:23:05.897Z,3.73
2022-11-24T18:25:28.228Z,2.87
2022-11-24T18:27:50.035Z,3.53
2022-11-24T18:30:12.093Z,3.40
2022-11-24T18:32:34.074Z,3.70
2022-11-24T18:34:55.895Z,2.90
2022-11-24T18:37:17.728Z,3.40
2022-11-24T18:39:42.337Z,3.40
2022-11-24T18:42:04.378Z,3.27
2022-11-24T18:44:26.238Z,3.53
2022-11-24T18:46:49.469Z,3.07
2022-11-24T18:49:11.353Z,3.20
2022-11-24T18:51:33.783Z,3.10
2022-11-24T18:53:58.163Z,3.27
2022-11-24T18:58:43.618Z,3.00
2022-11-24T19:01:12.255Z,2.70
2022-11-24T19:03:42.313Z,3.00
2022-11-24T19:06:10.609Z,3.10
2022-11-24T19:08:33.114Z,3.53
2022-11-24T19:10:55.005Z,3.80
2022-11-24T19:13:17.073Z,3.37
2022-11-24T19:15:39.041Z,3.07
2022-11-24T19:18:02.063Z,3.43
2022-11-24T19:20:23.970Z,3.57
2022-11-24T19:22:46.186Z,3.60
2022-11-24T19:25:08.738Z,3.10
2022-11-24T19:27:30.664Z,4.00
2022-11-24T19:29:55.034Z,3.63
2022-11-24T19:32:19.221Z,2.97
2022-11-24T19:34:41.059Z,3.30
2022-11-24T19:37:03.023Z,3.47
2022-11-24T19:39:24.939Z,2.70
2022-11-24T19:41:47.058Z,3.93
2022-11-24T19:44:12.529Z,3.40
2022-11-24T19:46:34.427Z,3.30
2022-11-24T19:49:00.604Z,3.43
2022-11-24T19:51:26.873Z,3.30
2022-11-24T19:53:48.939Z,4.07
2022-11-24T19:56:19.115Z,3.20
2022-11-24T19:58:42.066Z,3.40
2022-11-24T20:01:09.844Z,2.90
2022-11-24T20:03:31.702Z,3.70
2022-11-24T20:05:57.528Z,3.13
2022-11-24T20:08:19.349Z,3.27
2022-11-24T20:10:42.476Z,2.93
2022-11-24T20:13:04.326Z,3.07
2022-11-24T20:15:26.117Z,3.60
2022-11-24T20:17:47.909Z,3.47
2022-11-24T20:20:10.504Z,3.27
2022-11-24T20:22:32.390Z,3.20
2022-11-24T20:24:54.260Z,3.20
2022-11-24T20:27:16.075Z,3.10
2022-11-24T20:29:45.233Z,3.63
2022-11-24T20:32:08.783Z,3.43
2022-11-24T20:34:30.830Z,3.43
2022-11-24T20:36:53.145Z,3.03
2022-11-24T20:39:26.533Z,3.07
2022-11-24T20:41:48.495Z,3.40
2022-11-24T20:44:15.706Z,3.13
2022-11-24T20:46:41.813Z,3.00
2022-11-24T20:49:07.460Z,3.20
2022-11-24T20:51:36.965Z,3.70
2022-11-24T20:54:06.707Z,4.30
2022-11-24T20:56:35.295Z,3.37
2022-11-24T20:58:58.239Z,2.73
2022-11-24T21:01:26.532Z,3.23
2022-11-24T21:03:54.643Z,3.27
2022-11-24T21:06:16.486Z,2.47
2022-11-24T21:08:41.278Z,3.23
2022-11-24T21:11:05.639Z,2.90
2022-11-24T21:13:29.049Z,2.95
2022-11-24T21:15:52.089Z,3.27
2022-11-24T21:18:13.893Z,3.00
2022-11-24T21:20:35.775Z,3.40
2022-11-24T21:22:58.229Z,3.00
2022-11-24T21:25:20.084Z,3.07
2022-11-24T21:27:41.862Z,2.93
2022-11-24T21:30:04.217Z,2.53
2022-11-24T21:32:27.902Z,2.97
2022-11-24T21:34:49.760Z,2.60
2022-11-24T21:37:11.589Z,2.90
2022-11-24T21:39:33.702Z,3.23
2022-11-24T21:41:55.604Z,2.97
2022-11-24T21:44:17.388Z,3.67
2022-11-24T21:46:45.057Z,2.70
2022-11-24T21:49:11.351Z,3.00
2022-11-24T21:51:33.345Z,3.30
2022-11-24T21:53:55.234Z,2.70
2022-11-24T21:56:20.954Z,3.27
2022-11-24T21:58:52.857Z,2.63
2022-11-24T22:01:17.314Z,3.30
2022-11-24T22:03:39.308Z,3.03
2022-11-24T22:06:02.163Z,2.97
2022-11-24T22:08:26.316Z,2.90
2022-11-24T22:10:48.556Z,3.63
2022-11-24T22:13:10.410Z,3.00
2022-11-24T22:15:32.243Z,3.23
2022-11-24T22:17:54.209Z,3.30
2022-11-24T22:20:16.279Z,3.30
2022-11-24T22:22:38.148Z,3.20
2022-11-24T22:25:00.144Z,3.23
2022-11-24T22:27:21.922Z,3.53
2022-11-24T22:29:43.695Z,3.57
2022-11-24T22:32:05.633Z,3.43
2022-11-24T22:34:28.888Z,3.70
2022-11-24T22:36:50.696Z,3.13
2022-11-24T22:39:13.204Z,2.97
2022-11-24T22:41:35.753Z,3.17
2022-11-24T22:43:57.587Z,2.90
2022-11-24T22:46:23.308Z,3.40
2022-11-24T22:48:47.719Z,3.37
2022-11-24T22:51:23.539Z,3.05
2022-11-24T22:53:54.349Z,2.73
2022-11-24T22:56:16.953Z,2.97
2022-11-24T22:58:39.947Z,3.67
2022-11-24T23:01:15.429Z,2.80
2022-11-24T23:03:38.709Z,3.20
2022-11-24T23:06:07.084Z,3.10
2022-11-24T23:08:29.937Z,3.37
2022-11-24T23:10:51.818Z,3.30
2022-11-24T23:13:13.614Z,2.90
2022-11-24T23:15:37.002Z,3.00
2022-11-24T23:17:58.826Z,2.90
2022-11-24T23:20:20.648Z,2.87
2022-11-24T23:22:42.495Z,2.73
2022-11-24T23:25:04.692Z,3.50
2022-11-24T23:27:26.522Z,2.57
2022-11-24T23:29:48.308Z,2.53
2022-11-24T23:32:10.194Z,3.13
2022-11-24T23:34:32.002Z,3.17
2022-11-24T23:36:53.771Z,3.10
2022-11-24T23:39:15.670Z,3.63
2022-11-24T23:41:37.744Z,4.13
2022-11-24T23:44:00.193Z,3.20
2022-11-24T23:46:25.121Z,2.93
2022-11-24T23:48:47.911Z,3.03
2022-11-24T23:51:15.200Z,3.30
2022-11-24T23:53:37.218Z,3.23
2022-11-24T23:55:59.144Z,3.10
2022-11-24T23:58:22.554Z,3.80
